Lebanon, CT (06249)

4:49 PM EDT on August 31, 2015 (GMT -0400)
Colchester Commons | | Change Station
CLOSE
Current Station
Personal Weather Station
Location: Colchester, CT
Elevation: 518 ft
Nearby Weather Stations

Elev 518 ft 41.59 °N, 72.29 °W | Updated 37 seconds ago

Clear
Clear
84.9 °F
Feels Like 88 °F
N
1.8
Wind Variable Wind from SE
Gusts 2.5 mph

Today
High -- | Low -- °F
--% Chance of Precip.
Yesterday
High -- | Low -- °F
Precip. -- in
6:13 AM 7:24 PM
Waning Gibbous, 93% visible
Pressure 29.92 in
Visibility 10.0 miles
Clouds Few 4700 ft
Heat Index 88 °F
Dew Point 68 °F
Humidity 57%
Rainfall 0.00 in
Snow Depth Not available.
UV 2.0 out of 12
Pollen 10.20 out of 12
Air Quality Not available.
Flu Activity Not available.
METAR KIJD 311952Z AUTO 25008G15KT 10SM FEW047 31/19 A2992 RMK AO2 SLP130 T03060189
Pressure 29.92 in
Visibility 10.0 miles
Clouds Few 4700 ft
Heat Index 88 °F
Dew Point 68 °F
Humidity 57%
Rainfall 0.00 in
Snow Depth Not available.
UV 2.0 out of 12
Pollen 10.20 out of 12
Air Quality Not available.
Flu Activity Not available.
METAR KIJD 311952Z AUTO 25008G15KT 10SM FEW047 31/19 A2992 RMK AO2 SLP130 T03060189

10-Day Weather Forecast

×

Almanac

Astronomy

Aug. 31, 2015 Rise Set
Actual Time
Civil Twilight
Nautical Twilight
Astronomical Twilight
Moon
Length of Visible Light
Length of Day
Tomorrow will be .
, % of the Moon is Illuminated

Today's Extremes

State Highs State Lows

Community

WunderPhotos

Upload Photos

1,851,356 photos uploaded!

WunderBlogs® & News

Nearby

Air Quality

  Air Quality AQ Index Pollutant
Not available.

Snow Depth

Station Depth Elevation

Earthquake Activity

City Distance Mag. Time & Date
Minimum magnitude displayed is 2.5.

Coastal Water Temperatures

Place Temperature

Stations

Nearby Weather Stations

Station Location Temp. Windchill Dew Point Humidity Wind Precip. Elev Updated Type